sensor_id;sensor_type;location;lat;lon;timestamp;temperature;humidity
59162;DHT22;44942;48.936;8.260;2023-03-23T00:02:39;21.60;48.40
59162;DHT22;44942;48.936;8.260;2023-03-23T00:07:39;21.60;48.50
59162;DHT22;44942;48.936;8.260;2023-03-23T00:12:45;21.70;48.70
59162;DHT22;44942;48.936;8.260;2023-03-23T00:17:49;21.60;48.70
59162;DHT22;44942;48.936;8.260;2023-03-23T00:22:51;21.70;48.70
59162;DHT22;44942;48.936;8.260;2023-03-23T00:27:51;21.60;48.80
59162;DHT22;44942;48.936;8.260;2023-03-23T00:32:52;21.70;48.90
59162;DHT22;44942;48.936;8.260;2023-03-23T00:37:52;21.70;48.80
59162;DHT22;44942;48.936;8.260;2023-03-23T00:42:53;21.60;48.60
59162;DHT22;44942;48.936;8.260;2023-03-23T00:47:54;21.60;48.40
59162;DHT22;44942;48.936;8.260;2023-03-23T00:52:54;21.60;48.50
59162;DHT22;44942;48.936;8.260;2023-03-23T00:57:56;21.60;48.70
59162;DHT22;44942;48.936;8.260;2023-03-23T01:02:57;21.70;48.70
59162;DHT22;44942;48.936;8.260;2023-03-23T01:07:58;21.70;48.90
59162;DHT22;44942;48.936;8.260;2023-03-23T01:12:59;21.70;49.00
59162;DHT22;44942;48.936;8.260;2023-03-23T01:18:03;21.70;49.00
59162;DHT22;44942;48.936;8.260;2023-03-23T01:23:04;21.70;49.00
59162;DHT22;44942;48.936;8.260;2023-03-23T01:28:05;21.70;49.30
59162;DHT22;44942;48.936;8.260;2023-03-23T01:33:05;21.70;49.30
59162;DHT22;44942;48.936;8.260;2023-03-23T01:38:06;21.70;49.10
59162;DHT22;44942;48.936;8.260;2023-03-23T01:43:15;21.70;48.70
59162;DHT22;44942;48.936;8.260;2023-03-23T01:48:21;21.60;48.50
59162;DHT22;44942;48.936;8.260;2023-03-23T01:53:26;21.60;48.60
59162;DHT22;44942;48.936;8.260;2023-03-23T01:58:32;21.70;48.70
59162;DHT22;44942;48.936;8.260;2023-03-23T02:03:35;21.70;48.80
59162;DHT22;44942;48.936;8.260;2023-03-23T02:08:36;21.70;48.90
59162;DHT22;44942;48.936;8.260;2023-03-23T02:13:39;21.70;49.00
59162;DHT22;44942;48.936;8.260;2023-03-23T02:18:57;21.70;49.10
59162;DHT22;44942;48.936;8.260;2023-03-23T02:24:10;21.70;49.10
59162;DHT22;44942;48.936;8.260;2023-03-23T02:34:31;21.70;49.30
59162;DHT22;44942;48.936;8.260;2023-03-23T02:39:44;21.70;49.50
59162;DHT22;44942;48.936;8.260;2023-03-23T02:44:47;21.70;49.50
59162;DHT22;44942;48.936;8.260;2023-03-23T02:49:51;21.70;49.50
59162;DHT22;44942;48.936;8.260;2023-03-23T02:54:54;21.70;49.60
59162;DHT22;44942;48.936;8.260;2023-03-23T02:59:56;21.70;49.70
59162;DHT22;44942;48.936;8.260;2023-03-23T03:15:27;21.80;50.00
59162;DHT22;44942;48.936;8.260;2023-03-23T03:20:31;21.80;50.00
59162;DHT22;44942;48.936;8.260;2023-03-23T03:25:32;21.80;50.00
59162;DHT22;44942;48.936;8.260;2023-03-23T03:30:35;21.70;50.00
59162;DHT22;44942;48.936;8.260;2023-03-23T03:35:37;21.80;50.10
59162;DHT22;44942;48.936;8.260;2023-03-23T03:40:41;21.70;49.50
59162;DHT22;44942;48.936;8.260;2023-03-23T03:45:41;21.70;49.20
59162;DHT22;44942;48.936;8.260;2023-03-23T03:50:42;21.60;49.00
59162;DHT22;44942;48.936;8.260;2023-03-23T03:55:43;21.70;49.10
59162;DHT22;44942;48.936;8.260;2023-03-23T04:00:46;21.70;49.30
59162;DHT22;44942;48.936;8.260;2023-03-23T04:05:48;21.70;49.30
59162;DHT22;44942;48.936;8.260;2023-03-23T04:10:49;21.70;49.50
59162;DHT22;44942;48.936;8.260;2023-03-23T04:15:50;21.70;49.50
59162;DHT22;44942;48.936;8.260;2023-03-23T04:20:51;21.70;49.50
59162;DHT22;44942;48.936;8.260;2023-03-23T04:25:52;21.70;49.60
59162;DHT22;44942;48.936;8.260;2023-03-23T04:30:57;21.70;49.70
59162;DHT22;44942;48.936;8.260;2023-03-23T04:36:01;21.70;49.70
59162;DHT22;44942;48.936;8.260;2023-03-23T04:41:02;21.70;49.80
59162;DHT22;44942;48.936;8.260;2023-03-23T04:46:04;21.70;49.80
59162;DHT22;44942;48.936;8.260;2023-03-23T04:51:08;21.70;49.90
59162;DHT22;44942;48.936;8.260;2023-03-23T04:56:09;21.70;49.90
59162;DHT22;44942;48.936;8.260;2023-03-23T05:01:10;21.70;49.90
59162;DHT22;44942;48.936;8.260;2023-03-23T05:06:14;21.70;50.00
59162;DHT22;44942;48.936;8.260;2023-03-23T05:11:14;21.70;50.10
59162;DHT22;44942;48.936;8.260;2023-03-23T05:16:15;21.70;50.20
59162;DHT22;44942;48.936;8.260;2023-03-23T05:21:15;21.70;50.10
59162;DHT22;44942;48.936;8.260;2023-03-23T05:26:16;21.70;50.10
59162;DHT22;44942;48.936;8.260;2023-03-23T05:31:16;21.70;50.20
59162;DHT22;44942;48.936;8.260;2023-03-23T05:36:18;21.70;50.20
59162;DHT22;44942;48.936;8.260;2023-03-23T05:41:19;21.70;49.70
59162;DHT22;44942;48.936;8.260;2023-03-23T05:46:19;21.60;49.40
59162;DHT22;44942;48.936;8.260;2023-03-23T05:51:20;21.60;49.50
59162;DHT22;44942;48.936;8.260;2023-03-23T05:56:21;21.70;49.50
59162;DHT22;44942;48.936;8.260;2023-03-23T06:01:22;21.70;49.70
59162;DHT22;44942;48.936;8.260;2023-03-23T06:06:28;21.70;49.70
59162;DHT22;44942;48.936;8.260;2023-03-23T06:11:29;21.70;49.80
59162;DHT22;44942;48.936;8.260;2023-03-23T06:16:30;21.70;50.00
59162;DHT22;44942;48.936;8.260;2023-03-23T06:21:31;21.70;50.10
59162;DHT22;44942;48.936;8.260;2023-03-23T06:26:35;21.70;50.20
59162;DHT22;44942;48.936;8.260;2023-03-23T06:31:48;21.70;50.30
59162;DHT22;44942;48.936;8.260;2023-03-23T06:36:49;21.70;50.40
59162;DHT22;44942;48.936;8.260;2023-03-23T06:41:53;21.70;50.40
59162;DHT22;44942;48.936;8.260;2023-03-23T06:46:53;21.70;50.50
59162;DHT22;44942;48.936;8.260;2023-03-23T06:51:54;21.70;50.50
59162;DHT22;44942;48.936;8.260;2023-03-23T06:56:56;21.70;50.70
59162;DHT22;44942;48.936;8.260;2023-03-23T07:01:57;21.70;50.70
59162;DHT22;44942;48.936;8.260;2023-03-23T07:06:58;21.70;50.80
59162;DHT22;44942;48.936;8.260;2023-03-23T07:11:58;21.80;50.80
59162;DHT22;44942;48.936;8.260;2023-03-23T07:16:59;21.80;50.80
59162;DHT22;44942;48.936;8.260;2023-03-23T07:22:00;21.80;50.80
59162;DHT22;44942;48.936;8.260;2023-03-23T07:27:01;21.80;50.90
59162;DHT22;44942;48.936;8.260;2023-03-23T07:32:03;21.70;50.70
59162;DHT22;44942;48.936;8.260;2023-03-23T07:37:04;21.80;50.70
59162;DHT22;44942;48.936;8.260;2023-03-23T07:42:05;21.70;50.50
59162;DHT22;44942;48.936;8.260;2023-03-23T07:47:07;21.40;50.20
59162;DHT22;44942;48.936;8.260;2023-03-23T07:52:08;21.10;50.10
59162;DHT22;44942;48.936;8.260;2023-03-23T07:57:09;20.90;50.10
59162;DHT22;44942;48.936;8.260;2023-03-23T08:02:10;20.70;50.20
59162;DHT22;44942;48.936;8.260;2023-03-23T08:07:11;20.70;50.20
59162;DHT22;44942;48.936;8.260;2023-03-23T08:12:13;20.60;50.20
59162;DHT22;44942;48.936;8.260;2023-03-23T08:17:13;20.60;50.10
59162;DHT22;44942;48.936;8.260;2023-03-23T08:22:14;20.50;50.10
59162;DHT22;44942;48.936;8.260;2023-03-23T08:27:15;20.50;50.20
59162;DHT22;44942;48.936;8.260;2023-03-23T08:32:15;20.50;50.30
59162;DHT22;44942;48.936;8.260;2023-03-23T08:37:16;20.40;50.30
59162;DHT22;44942;48.936;8.260;2023-03-23T08:42:17;20.40;50.40
59162;DHT22;44942;48.936;8.260;2023-03-23T08:47:18;20.40;50.40
59162;DHT22;44942;48.936;8.260;2023-03-23T08:52:20;20.40;50.50
59162;DHT22;44942;48.936;8.260;2023-03-23T08:57:21;20.40;50.50
59162;DHT22;44942;48.936;8.260;2023-03-23T09:02:22;20.50;50.40
59162;DHT22;44942;48.936;8.260;2023-03-23T09:07:24;20.70;50.50
59162;DHT22;44942;48.936;8.260;2023-03-23T09:12:24;20.80;50.50
59162;DHT22;44942;48.936;8.260;2023-03-23T09:17:25;20.90;50.60
59162;DHT22;44942;48.936;8.260;2023-03-23T09:22:26;20.90;50.60
59162;DHT22;44942;48.936;8.260;2023-03-23T09:27:27;21.00;50.60
59162;DHT22;44942;48.936;8.260;2023-03-23T09:32:28;21.00;50.60
59162;DHT22;44942;48.936;8.260;2023-03-23T09:37:29;21.00;50.70
59162;DHT22;44942;48.936;8.260;2023-03-23T09:48:20;21.00;50.60
59162;DHT22;44942;48.936;8.260;2023-03-23T09:53:44;21.10;50.60
59162;DHT22;44942;48.936;8.260;2023-03-23T09:59:00;21.10;50.60
59162;DHT22;44942;48.936;8.260;2023-03-23T10:09:28;21.10;50.60
59162;DHT22;44942;48.936;8.260;2023-03-23T10:20:37;21.10;50.60
59162;DHT22;44942;48.936;8.260;2023-03-23T10:25:48;21.10;50.60
59162;DHT22;44942;48.936;8.260;2023-03-23T10:30:55;21.10;50.60
59162;DHT22;44942;48.936;8.260;2023-03-23T10:36:01;21.20;50.60
59162;DHT22;44942;48.936;8.260;2023-03-23T10:41:11;21.10;50.50
59162;DHT22;44942;48.936;8.260;2023-03-23T10:46:44;21.20;50.60
59162;DHT22;44942;48.936;8.260;2023-03-23T10:52:12;21.20;50.60
59162;DHT22;44942;48.936;8.260;2023-03-23T10:57:22;21.20;50.60
59162;DHT22;44942;48.936;8.260;2023-03-23T11:02:25;21.20;50.60
59162;DHT22;44942;48.936;8.260;2023-03-23T11:07:29;21.20;50.60
59162;DHT22;44942;48.936;8.260;2023-03-23T11:12:33;21.20;51.30
59162;DHT22;44942;48.936;8.260;2023-03-23T11:17:34;21.20;50.60
59162;DHT22;44942;48.936;8.260;2023-03-23T11:22:36;21.20;50.50
59162;DHT22;44942;48.936;8.260;2023-03-23T11:27:38;21.20;50.50
59162;DHT22;44942;48.936;8.260;2023-03-23T11:32:43;21.20;50.50
59162;DHT22;44942;48.936;8.260;2023-03-23T11:37:49;21.20;50.50
59162;DHT22;44942;48.936;8.260;2023-03-23T11:43:00;21.20;50.50
59162;DHT22;44942;48.936;8.260;2023-03-23T11:58:46;21.20;50.50
59162;DHT22;44942;48.936;8.260;2023-03-23T12:09:03;21.20;50.50
59162;DHT22;44942;48.936;8.260;2023-03-23T12:20:16;21.20;50.50
59162;DHT22;44942;48.936;8.260;2023-03-23T12:30:57;21.30;50.60
59162;DHT22;44942;48.936;8.260;2023-03-23T12:46:55;21.20;50.50
59162;DHT22;44942;48.936;8.260;2023-03-23T12:52:06;21.20;50.50
59162;DHT22;44942;48.936;8.260;2023-03-23T12:57:29;21.20;50.50
59162;DHT22;44942;48.936;8.260;2023-03-23T13:07:49;21.30;50.50
59162;DHT22;44942;48.936;8.260;2023-03-23T13:12:52;21.20;50.40
59162;DHT22;44942;48.936;8.260;2023-03-23T13:23:19;21.30;50.50
59162;DHT22;44942;48.936;8.260;2023-03-23T13:28:23;21.30;50.50
59162;DHT22;44942;48.936;8.260;2023-03-23T13:33:29;21.30;50.50
59162;DHT22;44942;48.936;8.260;2023-03-23T13:38:31;21.30;50.50
59162;DHT22;44942;48.936;8.260;2023-03-23T13:43:34;21.30;50.60
59162;DHT22;44942;48.936;8.260;2023-03-23T13:48:45;21.20;50.40
59162;DHT22;44942;48.936;8.260;2023-03-23T13:53:47;21.20;50.40
59162;DHT22;44942;48.936;8.260;2023-03-23T13:59:03;21.30;50.50
59162;DHT22;44942;48.936;8.260;2023-03-23T14:04:13;21.30;50.50
59162;DHT22;44942;48.936;8.260;2023-03-23T14:09:33;21.20;50.40
59162;DHT22;44942;48.936;8.260;2023-03-23T14:14:42;21.30;50.50
59162;DHT22;44942;48.936;8.260;2023-03-23T14:19:51;21.30;50.50
59162;DHT22;44942;48.936;8.260;2023-03-23T14:25:00;21.30;50.50
59162;DHT22;44942;48.936;8.260;2023-03-23T14:30:04;21.20;50.50
59162;DHT22;44942;48.936;8.260;2023-03-23T14:35:12;21.20;50.40
59162;DHT22;44942;48.936;8.260;2023-03-23T14:40:16;21.20;50.50
59162;DHT22;44942;48.936;8.260;2023-03-23T14:45:19;21.30;50.50
59162;DHT22;44942;48.936;8.260;2023-03-23T14:55:26;21.20;50.50
59162;DHT22;44942;48.936;8.260;2023-03-23T15:00:34;21.30;50.50
59162;DHT22;44942;48.936;8.260;2023-03-23T15:05:40;21.30;50.50
59162;DHT22;44942;48.936;8.260;2023-03-23T15:10:42;21.30;50.50
59162;DHT22;44942;48.936;8.260;2023-03-23T15:15:43;21.30;50.50
59162;DHT22;44942;48.936;8.260;2023-03-23T15:20:48;21.20;50.50
59162;DHT22;44942;48.936;8.260;2023-03-23T15:25:54;21.30;50.60
59162;DHT22;44942;48.936;8.260;2023-03-23T15:30:57;21.30;50.50
59162;DHT22;44942;48.936;8.260;2023-03-23T15:36:06;21.30;50.50
59162;DHT22;44942;48.936;8.260;2023-03-23T15:41:28;21.30;51.40
59162;DHT22;44942;48.936;8.260;2023-03-23T15:46:28;21.30;50.60
59162;DHT22;44942;48.936;8.260;2023-03-23T15:51:30;21.30;50.60
59162;DHT22;44942;48.936;8.260;2023-03-23T15:56:32;21.20;50.60
59162;DHT22;44942;48.936;8.260;2023-03-23T16:01:33;21.20;50.70
59162;DHT22;44942;48.936;8.260;2023-03-23T16:06:34;21.30;50.70
59162;DHT22;44942;48.936;8.260;2023-03-23T16:11:35;21.20;50.70
59162;DHT22;44942;48.936;8.260;2023-03-23T16:16:47;21.30;50.80
59162;DHT22;44942;48.936;8.260;2023-03-23T16:21:49;21.30;50.90
59162;DHT22;44942;48.936;8.260;2023-03-23T16:26:49;21.30;50.90
59162;DHT22;44942;48.936;8.260;2023-03-23T16:31:50;21.30;51.00
59162;DHT22;44942;48.936;8.260;2023-03-23T16:36:53;21.30;51.00
59162;DHT22;44942;48.936;8.260;2023-03-23T16:41:54;21.30;51.20
59162;DHT22;44942;48.936;8.260;2023-03-23T16:46:54;21.40;51.20
59162;DHT22;44942;48.936;8.260;2023-03-23T16:51:55;21.40;51.30
59162;DHT22;44942;48.936;8.260;2023-03-23T16:56:55;21.40;51.40
59162;DHT22;44942;48.936;8.260;2023-03-23T17:01:56;21.40;51.50
59162;DHT22;44942;48.936;8.260;2023-03-23T17:07:02;21.40;51.60
59162;DHT22;44942;48.936;8.260;2023-03-23T17:12:03;21.40;51.60
59162;DHT22;44942;48.936;8.260;2023-03-23T17:17:04;21.50;51.90
59162;DHT22;44942;48.936;8.260;2023-03-23T17:22:05;21.50;51.90
59162;DHT22;44942;48.936;8.260;2023-03-23T17:27:05;21.50;52.00
59162;DHT22;44942;48.936;8.260;2023-03-23T17:32:06;21.50;52.10
59162;DHT22;44942;48.936;8.260;2023-03-23T17:37:07;21.50;52.10
59162;DHT22;44942;48.936;8.260;2023-03-23T17:42:08;21.60;52.20
59162;DHT22;44942;48.936;8.260;2023-03-23T17:47:09;21.60;53.00
59162;DHT22;44942;48.936;8.260;2023-03-23T17:52:10;21.60;52.30
59162;DHT22;44942;48.936;8.260;2023-03-23T17:57:10;21.60;52.40
59162;DHT22;44942;48.936;8.260;2023-03-23T18:02:11;21.60;52.40
59162;DHT22;44942;48.936;8.260;2023-03-23T18:07:13;21.70;52.40
59162;DHT22;44942;48.936;8.260;2023-03-23T18:12:14;21.60;52.40
59162;DHT22;44942;48.936;8.260;2023-03-23T18:17:15;21.70;52.60
59162;DHT22;44942;48.936;8.260;2023-03-23T18:22:15;21.70;52.70
59162;DHT22;44942;48.936;8.260;2023-03-23T18:27:16;21.70;52.70
59162;DHT22;44942;48.936;8.260;2023-03-23T18:32:17;21.70;52.70
59162;DHT22;44942;48.936;8.260;2023-03-23T18:37:19;21.80;52.80
59162;DHT22;44942;48.936;8.260;2023-03-23T18:42:19;21.80;52.80
59162;DHT22;44942;48.936;8.260;2023-03-23T18:47:21;21.80;52.90
59162;DHT22;44942;48.936;8.260;2023-03-23T18:52:22;21.80;52.90
59162;DHT22;44942;48.936;8.260;2023-03-23T18:57:25;21.80;52.90
59162;DHT22;44942;48.936;8.260;2023-03-23T19:02:26;21.90;53.00
59162;DHT22;44942;48.936;8.260;2023-03-23T19:07:26;21.90;53.00
59162;DHT22;44942;48.936;8.260;2023-03-23T19:12:27;21.90;53.00
59162;DHT22;44942;48.936;8.260;2023-03-23T19:17:27;21.90;53.00
59162;DHT22;44942;48.936;8.260;2023-03-23T19:22:28;21.90;53.00
59162;DHT22;44942;48.936;8.260;2023-03-23T19:27:28;22.00;52.90
59162;DHT22;44942;48.936;8.260;2023-03-23T19:32:29;22.00;53.00
59162;DHT22;44942;48.936;8.260;2023-03-23T19:37:32;22.00;53.30
59162;DHT22;44942;48.936;8.260;2023-03-23T19:42:32;22.00;53.50
59162;DHT22;44942;48.936;8.260;2023-03-23T19:47:33;22.00;53.40
59162;DHT22;44942;48.936;8.260;2023-03-23T19:52:34;22.10;53.40
59162;DHT22;44942;48.936;8.260;2023-03-23T19:57:34;22.10;53.40
59162;DHT22;44942;48.936;8.260;2023-03-23T20:02:36;22.10;53.40
59162;DHT22;44942;48.936;8.260;2023-03-23T20:07:36;22.10;53.20
59162;DHT22;44942;48.936;8.260;2023-03-23T20:12:37;22.10;53.20
59162;DHT22;44942;48.936;8.260;2023-03-23T20:17:38;22.10;53.10
59162;DHT22;44942;48.936;8.260;2023-03-23T20:22:38;22.10;53.00
59162;DHT22;44942;48.936;8.260;2023-03-23T20:27:39;22.10;53.00
59162;DHT22;44942;48.936;8.260;2023-03-23T20:32:40;22.10;53.00
59162;DHT22;44942;48.936;8.260;2023-03-23T20:37:45;22.20;53.00
59162;DHT22;44942;48.936;8.260;2023-03-23T20:42:49;22.20;52.90
59162;DHT22;44942;48.936;8.260;2023-03-23T20:47:53;22.20;52.90
59162;DHT22;44942;48.936;8.260;2023-03-23T20:52:54;22.20;52.90
59162;DHT22;44942;48.936;8.260;2023-03-23T20:57:54;22.20;52.90
59162;DHT22;44942;48.936;8.260;2023-03-23T21:02:55;22.20;53.00
59162;DHT22;44942;48.936;8.260;2023-03-23T21:07:58;22.30;52.90
59162;DHT22;44942;48.936;8.260;2023-03-23T21:12:59;22.30;53.00
59162;DHT22;44942;48.936;8.260;2023-03-23T21:18:00;22.30;53.00
59162;DHT22;44942;48.936;8.260;2023-03-23T21:23:01;22.20;52.90
59162;DHT22;44942;48.936;8.260;2023-03-23T21:28:03;22.30;53.00
59162;DHT22;44942;48.936;8.260;2023-03-23T21:33:04;22.30;52.90
59162;DHT22;44942;48.936;8.260;2023-03-23T21:38:05;22.20;52.30
59162;DHT22;44942;48.936;8.260;2023-03-23T21:43:05;22.10;51.90
59162;DHT22;44942;48.936;8.260;2023-03-23T21:48:13;22.10;51.90
59162;DHT22;44942;48.936;8.260;2023-03-23T21:53:14;22.10;51.80
59162;DHT22;44942;48.936;8.260;2023-03-23T21:58:19;22.20;51.90
59162;DHT22;44942;48.936;8.260;2023-03-23T22:03:22;22.20;52.00
59162;DHT22;44942;48.936;8.260;2023-03-23T22:08:28;22.20;52.20
59162;DHT22;44942;48.936;8.260;2023-03-23T22:13:30;22.20;52.20
59162;DHT22;44942;48.936;8.260;2023-03-23T22:18:31;22.20;52.30
59162;DHT22;44942;48.936;8.260;2023-03-23T22:23:33;22.20;52.40
59162;DHT22;44942;48.936;8.260;2023-03-23T22:28:34;22.20;52.50
59162;DHT22;44942;48.936;8.260;2023-03-23T22:33:36;22.20;53.20
59162;DHT22;44942;48.936;8.260;2023-03-23T22:38:39;22.20;52.70
59162;DHT22;44942;48.936;8.260;2023-03-23T22:43:40;22.20;52.80
59162;DHT22;44942;48.936;8.260;2023-03-23T22:48:41;22.30;52.90
59162;DHT22;44942;48.936;8.260;2023-03-23T22:53:42;22.30;53.00
59162;DHT22;44942;48.936;8.260;2023-03-23T22:58:43;22.30;53.00
59162;DHT22;44942;48.936;8.260;2023-03-23T23:03:44;22.30;53.00
59162;DHT22;44942;48.936;8.260;2023-03-23T23:08:46;22.30;52.90
59162;DHT22;44942;48.936;8.260;2023-03-23T23:13:47;22.30;53.00
59162;DHT22;44942;48.936;8.260;2023-03-23T23:18:48;22.30;53.00
59162;DHT22;44942;48.936;8.260;2023-03-23T23:23:49;22.30;53.00
59162;DHT22;44942;48.936;8.260;2023-03-23T23:28:51;22.30;53.00
59162;DHT22;44942;48.936;8.260;2023-03-23T23:33:56;22.30;53.00
59162;DHT22;44942;48.936;8.260;2023-03-23T23:39:02;22.20;52.90
59162;DHT22;44942;48.936;8.260;2023-03-23T23:44:05;22.10;52.70
59162;DHT22;44942;48.936;8.260;2023-03-23T23:49:06;22.20;52.80
59162;DHT22;44942;48.936;8.260;2023-03-23T23:54:08;22.20;52.70
59162;DHT22;44942;48.936;8.260;2023-03-23T23:59:09;22.20;52.70
